createdAt,value
2018-10-18T00:02:09.880Z,7.73
2018-10-18T00:07:13.363Z,7.42
2018-10-18T00:12:16.697Z,7.08
2018-10-18T00:17:25.463Z,7.80
2018-10-18T00:22:28.756Z,7.97
2018-10-18T00:27:32.044Z,6.72
2018-10-18T00:32:35.334Z,7.53
2018-10-18T00:37:38.872Z,8.70
2018-10-18T00:42:42.493Z,7.87
2018-10-18T00:47:45.795Z,8.07
2018-10-18T00:52:49.088Z,8.30
2018-10-18T00:57:52.370Z,8.73
2018-10-18T01:02:55.663Z,7.50
2018-10-18T01:07:58.957Z,7.75
2018-10-18T01:13:02.249Z,7.97
2018-10-18T01:18:06.333Z,7.97
2018-10-18T01:23:09.897Z,7.87
2018-10-18T01:28:13.180Z,7.95
2018-10-18T01:33:16.504Z,7.15
2018-10-18T01:38:19.812Z,7.62
2018-10-18T01:43:23.189Z,7.30
2018-10-18T01:48:26.493Z,9.25
2018-10-18T01:53:30.064Z,6.95
2018-10-18T01:58:33.351Z,7.00
2018-10-18T02:03:36.635Z,7.12
2018-10-18T02:08:39.941Z,7.53
2018-10-18T02:13:43.379Z,7.15
2018-10-18T02:18:46.631Z,7.67
2018-10-18T02:23:49.932Z,7.10
2018-10-18T02:28:53.260Z,7.53
2018-10-18T02:33:56.551Z,6.90
2018-10-18T02:38:59.835Z,7.55
2018-10-18T02:44:03.163Z,7.28
2018-10-18T02:49:06.515Z,6.65
2018-10-18T02:54:09.879Z,7.22
2018-10-18T02:59:13.089Z,8.70
2018-10-18T03:04:16.351Z,7.00
2018-10-18T03:09:19.637Z,7.58
2018-10-18T03:14:22.891Z,7.90
2018-10-18T03:19:26.363Z,7.45
2018-10-18T03:24:29.652Z,6.70
2018-10-18T03:29:32.999Z,6.75
2018-10-18T03:34:36.312Z,6.47
2018-10-18T03:39:39.580Z,7.00
2018-10-18T03:44:42.871Z,7.05
2018-10-18T03:49:46.153Z,7.17
2018-10-18T03:54:49.418Z,6.50
2018-10-18T03:59:52.772Z,6.85
2018-10-18T04:04:56.056Z,7.65
2018-10-18T04:09:59.383Z,6.90
2018-10-18T04:15:03.266Z,7.72
2018-10-18T04:20:07.128Z,6.97
2018-10-18T04:25:10.393Z,7.58
2018-10-18T04:30:13.810Z,8.45
2018-10-18T04:35:16.935Z,6.57
2018-10-18T04:40:20.191Z,7.83
2018-10-18T04:45:23.491Z,7.25
2018-10-18T04:50:26.763Z,7.03
2018-10-18T04:55:30.099Z,7.75
2018-10-18T05:00:33.369Z,7.70
2018-10-18T05:05:57.392Z,6.70
2018-10-18T05:11:00.643Z,6.87
2018-10-18T05:16:04.882Z,7.67
2018-10-18T05:21:08.151Z,7.70
2018-10-18T05:26:11.432Z,10.15
2018-10-18T05:31:14.820Z,13.95
2018-10-18T05:36:17.983Z,15.93
2018-10-18T05:41:21.251Z,16.45
2018-10-18T05:46:24.546Z,17.10
2018-10-18T05:51:27.819Z,15.13
2018-10-18T05:56:31.093Z,15.20
2018-10-18T06:01:34.383Z,15.83
2018-10-18T06:06:37.655Z,15.98
2018-10-18T06:11:40.911Z,15.68
2018-10-18T06:16:44.224Z,15.70
2018-10-18T06:21:47.492Z,15.53
2018-10-18T06:26:50.775Z,16.12
2018-10-18T06:31:54.049Z,16.77
2018-10-18T06:36:57.344Z,17.30
2018-10-18T06:42:00.608Z,17.52
2018-10-18T06:47:04.036Z,16.75
2018-10-18T06:52:07.251Z,17.12
2018-10-18T06:57:10.541Z,17.23
2018-10-18T07:02:13.823Z,17.75
2018-10-18T07:07:17.102Z,16.00
2018-10-18T07:12:20.377Z,17.92
2018-10-18T07:17:23.653Z,17.75
2018-10-18T07:22:26.939Z,17.85
2018-10-18T07:27:30.223Z,17.95
2018-10-18T07:32:33.490Z,17.77
2018-10-18T07:37:36.800Z,17.67
2018-10-18T07:42:40.213Z,18.45
2018-10-18T07:47:44.136Z,19.37
2018-10-18T07:52:47.426Z,18.00
2018-10-18T07:57:50.704Z,19.00
2018-10-18T08:02:53.986Z,18.05
2018-10-18T08:07:57.251Z,23.90
2018-10-18T08:13:00.593Z,26.80
2018-10-18T08:18:03.823Z,27.30
2018-10-18T08:23:07.092Z,25.92
2018-10-18T08:28:10.376Z,23.05
2018-10-18T08:33:13.670Z,20.48
2018-10-18T08:38:17.450Z,20.85
2018-10-18T08:43:21.567Z,18.75
2018-10-18T08:48:24.841Z,18.98
2018-10-18T08:53:28.112Z,18.30
2018-10-18T08:58:31.378Z,18.20
2018-10-18T09:03:34.655Z,17.80
2018-10-18T09:08:37.923Z,19.87
2018-10-18T09:13:41.279Z,21.40
2018-10-18T09:18:44.544Z,18.50
2018-10-18T09:23:48.274Z,20.02
2018-10-18T09:28:51.488Z,18.23
2018-10-18T09:33:54.823Z,18.57
2018-10-18T09:38:58.084Z,14.65
2018-10-18T09:44:04.494Z,17.15
2018-10-18T09:49:07.843Z,19.73
2018-10-18T09:54:11.055Z,20.02
2018-10-18T09:59:14.324Z,19.60
2018-10-18T10:04:17.595Z,18.35
2018-10-18T10:09:20.887Z,18.07
2018-10-18T10:14:24.169Z,16.62
2018-10-18T10:19:27.504Z,15.38
2018-10-18T10:24:30.822Z,17.45
2018-10-18T10:29:34.083Z,16.93
2018-10-18T10:34:37.351Z,17.02
2018-10-18T10:39:40.683Z,19.17
2018-10-18T10:44:43.996Z,20.65
2018-10-18T10:49:47.726Z,20.50
2018-10-18T10:54:51.004Z,22.10
2018-10-18T10:59:54.276Z,22.32
2018-10-18T11:04:57.557Z,22.22
2018-10-18T11:10:00.920Z,22.50
2018-10-18T11:15:04.393Z,25.00
2018-10-18T11:20:07.760Z,24.92
2018-10-18T11:25:11.105Z,26.00
2018-10-18T11:30:14.474Z,24.20
2018-10-18T11:35:17.686Z,23.37
2018-10-18T11:40:20.972Z,22.60
2018-10-18T11:45:24.283Z,23.67
2018-10-18T11:50:27.866Z,21.77
2018-10-18T11:55:31.191Z,21.60
2018-10-18T12:00:34.466Z,21.15
2018-10-18T12:05:37.746Z,21.93
2018-10-18T12:10:41.034Z,22.87
2018-10-18T12:15:44.417Z,23.07
2018-10-18T12:20:47.702Z,22.42
2018-10-18T12:25:50.976Z,22.42
2018-10-18T12:30:54.258Z,21.12
2018-10-18T12:35:57.537Z,22.62
2018-10-18T12:41:00.913Z,20.52
2018-10-18T12:46:04.148Z,20.08
2018-10-18T12:51:07.440Z,19.55
2018-10-18T12:56:10.798Z,18.15
2018-10-18T13:01:14.041Z,17.82
2018-10-18T13:06:17.349Z,17.87
2018-10-18T13:11:20.611Z,16.80
2018-10-18T13:16:23.918Z,17.23
2018-10-18T13:21:27.251Z,15.45
2018-10-18T13:26:30.525Z,16.20
2018-10-18T13:31:33.808Z,13.75
2018-10-18T13:36:37.093Z,14.45
2018-10-18T13:41:40.461Z,13.80
2018-10-18T13:46:43.783Z,13.30
2018-10-18T13:51:47.066Z,13.40
2018-10-18T13:56:50.355Z,12.50
2018-10-18T14:01:53.665Z,12.88
2018-10-18T14:06:56.970Z,13.62
2018-10-18T14:12:00.254Z,12.70
2018-10-18T14:17:03.656Z,12.10
2018-10-18T14:22:06.949Z,12.13
2018-10-18T14:27:10.404Z,13.03
2018-10-18T14:32:13.759Z,11.50
2018-10-18T14:37:17.093Z,11.68
2018-10-18T14:42:20.392Z,12.85
2018-10-18T14:47:24.111Z,11.73
2018-10-18T14:52:27.269Z,11.20
2018-10-18T14:57:30.603Z,11.68
2018-10-18T15:02:33.942Z,11.63
2018-10-18T15:07:38.213Z,10.53
2018-10-18T15:12:41.896Z,11.43
2018-10-18T15:17:45.157Z,10.70
2018-10-18T15:22:48.476Z,10.72
2018-10-18T15:27:51.929Z,10.65
2018-10-18T15:32:55.175Z,9.50
2018-10-18T15:37:58.512Z,12.18
2018-10-18T15:43:02.558Z,11.55
2018-10-18T15:48:05.910Z,11.03
2018-10-18T15:53:09.263Z,11.43
2018-10-18T15:58:12.680Z,11.85
2018-10-18T16:03:16.093Z,10.45
2018-10-18T16:08:19.334Z,10.25
2018-10-18T16:13:22.638Z,11.12
2018-10-18T16:18:25.986Z,10.70
2018-10-18T16:23:29.314Z,11.00
2018-10-18T16:28:32.627Z,10.13
2018-10-18T16:33:36.064Z,9.60
2018-10-18T16:38:39.353Z,10.18
2018-10-18T16:43:42.659Z,10.08
2018-10-18T16:48:45.976Z,8.93
2018-10-18T16:53:49.318Z,11.45
2018-10-18T16:58:52.930Z,9.80
2018-10-18T17:03:56.284Z,9.63
2018-10-18T17:08:59.577Z,9.63
2018-10-18T17:14:02.901Z,8.85
2018-10-18T17:19:06.680Z,8.75
2018-10-18T17:24:10.016Z,8.88
2018-10-18T17:29:13.309Z,9.15
2018-10-18T17:34:16.642Z,8.30
2018-10-18T17:39:19.913Z,7.70
2018-10-18T17:44:23.346Z,8.13
2018-10-18T17:49:26.729Z,8.53
2018-10-18T17:54:30.302Z,7.97
2018-10-18T17:59:33.790Z,7.78
2018-10-18T18:04:37.376Z,6.65
2018-10-18T18:09:40.725Z,7.03
2018-10-18T18:14:44.042Z,7.15
2018-10-18T18:19:47.348Z,7.22
2018-10-18T18:24:50.662Z,6.85
2018-10-18T18:29:53.995Z,6.62
2018-10-18T18:34:57.302Z,7.10
2018-10-18T18:40:00.635Z,7.10
2018-10-18T18:45:10.161Z,7.22
2018-10-18T18:50:13.320Z,7.20
2018-10-18T18:55:16.631Z,6.87
2018-10-18T19:00:20.206Z,6.70
2018-10-18T19:05:24.386Z,6.03
2018-10-18T19:10:27.756Z,5.95
2018-10-18T19:15:31.062Z,7.07
2018-10-18T19:20:34.509Z,5.47
2018-10-18T19:25:37.957Z,5.78
2018-10-18T19:30:41.465Z,5.62
2018-10-18T19:35:44.861Z,5.42
2018-10-18T19:40:48.316Z,5.72
2018-10-18T19:45:52.671Z,5.42
2018-10-18T19:50:55.957Z,4.85
2018-10-18T19:55:59.245Z,4.85
2018-10-18T20:01:02.540Z,5.30
2018-10-18T20:06:05.914Z,4.87
2018-10-18T20:11:09.211Z,4.87
2018-10-18T20:16:12.518Z,4.58
2018-10-18T20:21:14.932Z,4.78
2018-10-18T20:26:18.478Z,4.65
2018-10-18T20:31:21.476Z,4.17
2018-10-18T20:36:24.828Z,4.70
2018-10-18T20:41:28.745Z,4.25
2018-10-18T20:46:32.044Z,4.70
2018-10-18T20:51:35.320Z,4.47
2018-10-18T20:56:38.601Z,4.30
2018-10-18T21:01:41.895Z,4.15
2018-10-18T21:06:45.412Z,4.45
2018-10-18T21:11:48.564Z,4.53
2018-10-18T21:16:52.148Z,4.05
2018-10-18T21:21:55.668Z,3.70
2018-10-18T21:26:58.952Z,4.45
2018-10-18T21:32:02.237Z,3.87
2018-10-18T21:37:05.608Z,4.05
2018-10-18T21:42:08.892Z,4.15
2018-10-18T21:47:12.542Z,4.28
2018-10-18T21:52:15.789Z,3.37
2018-10-18T21:57:19.097Z,3.50
2018-10-18T22:02:22.518Z,3.85
2018-10-18T22:07:26.118Z,4.03
2018-10-18T22:12:29.468Z,3.62
2018-10-18T22:17:32.781Z,3.87
2018-10-18T22:22:36.397Z,3.37
2018-10-18T22:27:39.770Z,3.70
2018-10-18T22:32:43.356Z,3.98
2018-10-18T22:37:46.900Z,3.37
2018-10-18T22:42:50.222Z,3.60
2018-10-18T22:47:53.557Z,3.05
2018-10-18T22:52:56.913Z,3.60
2018-10-18T22:58:00.243Z,3.02
2018-10-18T23:03:03.538Z,3.35
2018-10-18T23:08:06.846Z,2.95
2018-10-18T23:13:10.459Z,3.05
2018-10-18T23:18:13.744Z,3.02
2018-10-18T23:23:17.160Z,2.83
2018-10-18T23:28:20.348Z,3.20
2018-10-18T23:33:23.617Z,2.60
2018-10-18T23:38:27.208Z,3.12
2018-10-18T23:43:30.473Z,3.02
2018-10-18T23:48:33.759Z,3.02
2018-10-18T23:53:37.046Z,2.70
2018-10-18T23:58:40.360Z,2.95
